createdAt,value
2022-09-03T00:02:23.506Z,9.40
2022-09-03T00:04:59.769Z,9.40
2022-09-03T00:07:47.159Z,9.40
2022-09-03T00:10:26.484Z,9.30
2022-09-03T00:12:58.141Z,9.30
2022-09-03T00:15:26.470Z,9.30
2022-09-03T00:17:59.882Z,9.30
2022-09-03T00:20:33.236Z,9.20
2022-09-03T00:23:05.947Z,9.20
2022-09-03T00:25:39.737Z,9.20
2022-09-03T00:28:14.169Z,9.20
2022-09-03T00:30:44.324Z,9.20
2022-09-03T00:33:20.218Z,9.20
2022-09-03T00:35:53.904Z,9.10
2022-09-03T00:38:22.382Z,9.10
2022-09-03T00:41:03.618Z,9.10
2022-09-03T00:43:46.420Z,9.10
2022-09-03T00:46:22.124Z,9.00
2022-09-03T00:49:24.887Z,9.00
2022-09-03T00:52:00.544Z,9.00
2022-09-03T00:54:38.985Z,9.00
2022-09-03T00:57:26.614Z,9.00
2022-09-03T01:00:03.900Z,9.00
2022-09-03T01:02:48.025Z,8.90
2022-09-03T01:05:28.829Z,9.00
2022-09-03T01:08:07.234Z,8.90
2022-09-03T01:10:44.732Z,9.00
2022-09-03T01:13:18.014Z,9.00
2022-09-03T01:15:58.548Z,9.00
2022-09-03T01:18:35.854Z,9.00
2022-09-03T01:21:29.459Z,9.00
2022-09-03T01:24:20.001Z,9.00
2022-09-03T01:27:03.621Z,9.00
2022-09-03T01:29:39.971Z,8.90
2022-09-03T01:32:15.764Z,8.90
2022-09-03T01:34:53.893Z,8.90
2022-09-03T01:37:35.654Z,8.90
2022-09-03T01:40:14.166Z,8.90
2022-09-03T01:42:54.419Z,8.90
2022-09-03T01:45:41.865Z,9.00
2022-09-03T01:48:41.339Z,8.90
2022-09-03T01:51:19.646Z,8.90
2022-09-03T01:54:04.766Z,8.90
2022-09-03T01:56:44.780Z,8.80
2022-09-03T01:59:21.674Z,8.90
2022-09-03T02:01:57.276Z,8.90
2022-09-03T02:04:28.716Z,8.90
2022-09-03T02:07:00.811Z,8.90
2022-09-03T02:09:32.524Z,8.80
2022-09-03T02:12:05.506Z,8.80
2022-09-03T02:14:33.622Z,8.80
2022-09-03T02:17:06.514Z,8.80
2022-09-03T02:19:37.748Z,8.70
2022-09-03T02:22:06.397Z,8.70
2022-09-03T02:24:34.597Z,8.70
2022-09-03T02:27:02.781Z,8.70
2022-09-03T02:29:31.318Z,8.70
2022-09-03T02:31:59.798Z,8.70
2022-09-03T02:34:29.131Z,8.60
2022-09-03T02:36:57.103Z,8.60
2022-09-03T02:39:25.334Z,8.60
2022-09-03T02:41:58.293Z,8.60
2022-09-03T02:44:31.774Z,8.50
2022-09-03T02:47:01.076Z,8.50
2022-09-03T02:49:30.947Z,8.40
2022-09-03T02:52:01.865Z,8.40
2022-09-03T02:54:31.286Z,8.40
2022-09-03T02:56:59.387Z,8.40
2022-09-03T02:59:28.311Z,8.40
2022-09-03T03:01:56.683Z,8.40
2022-09-03T03:04:31.359Z,8.30
2022-09-03T03:06:59.414Z,8.30
2022-09-03T03:09:27.874Z,8.20
2022-09-03T03:11:56.487Z,8.30
2022-09-03T03:14:24.691Z,8.30
2022-09-03T03:16:53.154Z,8.20
2022-09-03T03:19:21.128Z,8.20
2022-09-03T03:21:50.573Z,8.10
2022-09-03T03:24:18.575Z,8.10
2022-09-03T03:26:46.623Z,8.10
2022-09-03T03:29:18.524Z,8.10
2022-09-03T03:31:46.659Z,8.10
2022-09-03T03:34:14.676Z,8.10
2022-09-03T03:36:42.721Z,8.10
2022-09-03T03:39:11.962Z,8.10
2022-09-03T03:41:40.142Z,8.10
2022-09-03T03:44:09.864Z,8.00
2022-09-03T03:46:39.255Z,8.00
2022-09-03T03:49:08.272Z,8.00
2022-09-03T03:51:37.203Z,7.90
2022-09-03T03:54:05.999Z,7.90
2022-09-03T03:56:36.173Z,7.90
2022-09-03T03:59:04.940Z,7.90
2022-09-03T04:01:33.629Z,7.80
2022-09-03T04:04:01.900Z,7.80
2022-09-03T04:06:30.725Z,7.80
2022-09-03T04:08:58.751Z,7.80
2022-09-03T04:11:27.047Z,7.80
2022-09-03T04:13:56.527Z,7.80
2022-09-03T04:16:27.018Z,7.80
2022-09-03T04:18:55.926Z,7.80
2022-09-03T04:21:26.617Z,7.80
2022-09-03T04:23:57.279Z,7.80
2022-09-03T04:26:27.211Z,7.80
2022-09-03T04:28:56.902Z,7.80
2022-09-03T04:31:25.867Z,7.80
2022-09-03T04:33:54.755Z,7.90
2022-09-03T04:36:24.230Z,8.00
2022-09-03T04:38:54.254Z,8.00
2022-09-03T04:41:24.886Z,8.10
2022-09-03T04:43:53.197Z,8.10
2022-09-03T04:46:26.132Z,8.20
2022-09-03T04:48:58.060Z,8.30
2022-09-03T04:51:28.125Z,8.40
2022-09-03T04:53:57.932Z,8.50
2022-09-03T04:56:28.471Z,8.60
2022-09-03T04:58:58.111Z,8.70
2022-09-03T05:01:29.190Z,8.80
2022-09-03T05:03:58.137Z,8.80
2022-09-03T05:06:26.825Z,8.90
2022-09-03T05:08:56.117Z,9.00
2022-09-03T05:11:25.076Z,9.10
2022-09-03T05:13:54.945Z,9.20
2022-09-03T05:16:24.625Z,9.30
2022-09-03T05:18:55.853Z,9.30
2022-09-03T05:21:24.741Z,9.40
2022-09-03T05:23:53.953Z,9.50
2022-09-03T05:26:23.674Z,9.60
2022-09-03T05:28:55.776Z,9.70
2022-09-03T05:31:26.483Z,9.90
2022-09-03T05:33:59.044Z,9.90
2022-09-03T05:36:29.180Z,10.10
2022-09-03T05:38:58.472Z,10.20
2022-09-03T05:41:27.697Z,10.30
2022-09-03T05:43:59.061Z,10.40
2022-09-03T05:46:31.901Z,10.50
2022-09-03T05:49:02.893Z,10.60
2022-09-03T05:51:32.156Z,10.80
2022-09-03T05:54:01.092Z,10.90
2022-09-03T05:56:30.877Z,11.00
2022-09-03T05:59:01.169Z,11.20
2022-09-03T06:01:31.204Z,11.30
2022-09-03T06:04:02.440Z,11.40
2022-09-03T06:06:33.139Z,11.50
2022-09-03T06:09:02.667Z,11.60
2022-09-03T06:11:32.925Z,11.80
2022-09-03T06:14:02.562Z,11.90
2022-09-03T06:16:32.259Z,12.00
2022-09-03T06:19:02.403Z,12.10
2022-09-03T06:21:30.622Z,12.20
2022-09-03T06:23:59.592Z,12.30
2022-09-03T06:26:29.463Z,12.40
2022-09-03T06:28:58.346Z,12.50
2022-09-03T06:31:27.327Z,12.60
2022-09-03T06:33:59.590Z,12.70
2022-09-03T06:36:29.589Z,12.80
2022-09-03T06:38:58.347Z,12.90
2022-09-03T06:41:28.311Z,13.00
2022-09-03T06:44:03.391Z,13.00
2022-09-03T06:46:33.159Z,13.10
2022-09-03T06:49:01.207Z,13.20
2022-09-03T06:51:33.079Z,13.30
2022-09-03T06:54:02.499Z,13.40
2022-09-03T06:56:33.034Z,13.50
2022-09-03T06:59:07.003Z,13.60
2022-09-03T07:01:35.817Z,13.70
2022-09-03T07:04:05.844Z,13.70
2022-09-03T07:06:38.661Z,13.80
2022-09-03T07:09:06.918Z,14.00
2022-09-03T07:11:36.217Z,14.10
2022-09-03T07:14:06.055Z,14.30
2022-09-03T07:16:36.157Z,14.40
2022-09-03T07:19:05.043Z,14.50
2022-09-03T07:21:36.833Z,14.60
2022-09-03T07:24:05.901Z,14.80
2022-09-03T07:26:36.430Z,14.90
2022-09-03T07:29:05.199Z,15.10
2022-09-03T07:31:35.751Z,15.20
2022-09-03T07:34:10.030Z,15.30
2022-09-03T07:36:41.760Z,15.40
2022-09-03T07:39:11.506Z,15.40
2022-09-03T07:41:43.495Z,15.60
2022-09-03T07:44:13.197Z,15.70
2022-09-03T07:46:41.391Z,15.80
2022-09-03T07:49:09.577Z,15.80
2022-09-03T07:51:40.355Z,16.00
2022-09-03T07:54:11.227Z,16.40
2022-09-03T07:56:40.741Z,16.80
2022-09-03T07:59:09.539Z,17.10
2022-09-03T08:01:41.340Z,17.40
2022-09-03T08:04:11.104Z,17.70
2022-09-03T08:06:40.937Z,17.80
2022-09-03T08:09:13.555Z,17.90
2022-09-03T08:11:43.817Z,18.00
2022-09-03T08:14:13.514Z,18.10
2022-09-03T08:16:43.477Z,18.30
2022-09-03T08:19:13.580Z,18.30
2022-09-03T08:21:43.111Z,18.50
2022-09-03T08:24:11.947Z,18.60
2022-09-03T08:26:46.368Z,18.70
2022-09-03T08:29:18.671Z,18.70
2022-09-03T08:31:46.987Z,18.90
2022-09-03T08:34:17.463Z,18.90
2022-09-03T08:36:48.160Z,18.90
2022-09-03T08:39:16.769Z,18.90
2022-09-03T08:42:18.962Z,19.00
2022-09-03T08:44:49.723Z,19.10
2022-09-03T08:47:22.724Z,19.20
2022-09-03T08:49:56.698Z,19.40
2022-09-03T08:52:32.668Z,19.40
2022-09-03T08:55:09.825Z,19.50
2022-09-03T08:57:44.776Z,19.60
2022-09-03T09:00:13.954Z,19.80
2022-09-03T09:02:52.179Z,19.90
2022-09-03T09:05:26.370Z,20.00
2022-09-03T09:08:05.128Z,20.20
2022-09-03T09:10:42.076Z,20.30
2022-09-03T09:13:21.118Z,20.40
2022-09-03T09:15:55.462Z,20.60
2022-09-03T09:18:37.596Z,20.50
2022-09-03T09:21:15.660Z,20.60
2022-09-03T09:23:49.346Z,20.60
2022-09-03T09:26:19.835Z,20.70
2022-09-03T09:28:57.318Z,20.80
2022-09-03T09:31:25.981Z,20.80
2022-09-03T09:33:54.598Z,20.80
2022-09-03T09:36:24.206Z,20.90
2022-09-03T09:38:53.968Z,20.90
2022-09-03T09:41:27.557Z,20.90
2022-09-03T09:44:02.840Z,20.90
2022-09-03T09:46:36.941Z,21.00
2022-09-03T09:49:30.100Z,21.00
2022-09-03T09:52:05.187Z,21.10
2022-09-03T09:54:33.538Z,21.10
2022-09-03T09:57:03.695Z,21.00
2022-09-03T09:59:32.429Z,20.90
2022-09-03T10:02:22.065Z,20.90
2022-09-03T10:04:51.121Z,20.90
2022-09-03T10:07:32.128Z,20.90
2022-09-03T10:10:08.065Z,21.00
2022-09-03T10:12:42.205Z,21.10
2022-09-03T10:15:21.461Z,21.00
2022-09-03T10:17:57.654Z,20.90
2022-09-03T10:20:33.720Z,21.00
2022-09-03T10:23:09.377Z,21.00
2022-09-03T10:25:47.957Z,21.00
2022-09-03T10:28:17.734Z,21.10
2022-09-03T10:31:01.288Z,21.00
2022-09-03T10:33:36.226Z,21.00
2022-09-03T10:36:13.761Z,20.90
2022-09-03T10:38:44.676Z,20.80
2022-09-03T10:41:26.366Z,20.70
2022-09-03T10:44:11.931Z,20.70
2022-09-03T10:46:49.019Z,20.80
2022-09-03T10:49:31.034Z,20.70
2022-09-03T10:52:05.141Z,20.80
2022-09-03T10:54:43.915Z,20.90
2022-09-03T10:57:23.078Z,20.80
2022-09-03T11:00:08.416Z,20.80
2022-09-03T11:03:06.174Z,20.90
2022-09-03T11:05:39.320Z,21.00
2022-09-03T11:08:13.500Z,21.10
2022-09-03T11:10:46.071Z,21.10
2022-09-03T11:13:20.324Z,21.20
2022-09-03T11:15:54.002Z,21.20
2022-09-03T11:18:27.554Z,21.30
2022-09-03T11:21:07.739Z,21.30
2022-09-03T11:23:42.240Z,21.30
2022-09-03T11:26:14.460Z,21.30
2022-09-03T11:28:49.105Z,21.40
2022-09-03T11:31:34.732Z,21.40
2022-09-03T11:34:08.242Z,21.60
2022-09-03T11:36:38.866Z,21.70
2022-09-03T11:39:21.059Z,21.70
2022-09-03T11:42:02.258Z,21.70
2022-09-03T11:44:44.309Z,21.70
2022-09-03T11:47:24.941Z,21.80
2022-09-03T11:49:54.797Z,22.10
2022-09-03T11:52:32.262Z,22.10
2022-09-03T11:55:00.459Z,22.00
2022-09-03T11:57:32.359Z,22.00
2022-09-03T12:00:11.852Z,21.90
2022-09-03T12:02:46.383Z,22.00
2022-09-03T12:05:34.723Z,22.00
2022-09-03T12:08:18.206Z,22.00
2022-09-03T12:10:54.478Z,21.90
2022-09-03T12:13:33.610Z,21.60
2022-09-03T12:16:33.434Z,21.40
2022-09-03T12:19:07.474Z,21.40
2022-09-03T12:21:41.351Z,21.40
2022-09-03T12:24:14.027Z,21.50
2022-09-03T12:26:43.782Z,21.70
2022-09-03T12:29:27.526Z,21.90
2022-09-03T12:31:57.578Z,21.90
2022-09-03T12:34:27.427Z,22.10
2022-09-03T12:36:55.783Z,22.00
2022-09-03T12:42:20.861Z,22.10
2022-09-03T12:44:50.290Z,22.20
2022-09-03T12:47:37.249Z,22.20
2022-09-03T12:50:10.879Z,22.30
2022-09-03T12:52:42.337Z,22.40
2022-09-03T12:55:28.136Z,22.60
2022-09-03T12:58:02.909Z,22.60
2022-09-03T13:00:35.931Z,22.50
2022-09-03T13:03:07.682Z,22.40
2022-09-03T13:05:43.033Z,22.40
2022-09-03T13:08:16.198Z,22.30
2022-09-03T13:10:44.779Z,22.40
2022-09-03T13:13:24.549Z,22.30
2022-09-03T13:16:20.670Z,22.20
2022-09-03T13:18:54.150Z,22.00
2022-09-03T13:21:35.825Z,21.90
2022-09-03T13:24:20.934Z,21.80
2022-09-03T13:27:02.579Z,21.80
2022-09-03T13:29:41.159Z,21.80
2022-09-03T13:32:27.928Z,21.90
2022-09-03T13:35:02.857Z,22.00
2022-09-03T13:37:38.515Z,22.10
2022-09-03T13:40:16.045Z,22.00
2022-09-03T13:42:47.493Z,22.10
2022-09-03T13:45:31.521Z,22.10
2022-09-03T13:48:26.847Z,22.10
2022-09-03T13:51:04.040Z,22.20
2022-09-03T13:53:42.498Z,22.20
2022-09-03T13:56:22.088Z,22.10
2022-09-03T13:58:54.608Z,22.20
2022-09-03T14:01:28.449Z,22.30
2022-09-03T14:04:20.640Z,22.40
2022-09-03T14:06:59.324Z,22.50
2022-09-03T14:09:36.968Z,22.50
2022-09-03T14:12:13.769Z,22.40
2022-09-03T14:14:51.925Z,22.30
2022-09-03T14:17:32.016Z,22.20
2022-09-03T14:20:06.594Z,22.10
2022-09-03T14:22:49.653Z,21.90
2022-09-03T14:25:19.333Z,21.90
2022-09-03T14:27:47.390Z,21.80
2022-09-03T14:30:34.079Z,21.90
2022-09-03T14:33:14.778Z,22.00
2022-09-03T14:36:08.337Z,22.00
2022-09-03T14:39:04.087Z,21.90
2022-09-03T14:41:56.545Z,21.90
2022-09-03T14:44:52.350Z,21.90
2022-09-03T14:47:39.462Z,21.90
2022-09-03T14:50:22.014Z,21.80
2022-09-03T14:53:10.278Z,21.80
2022-09-03T14:56:23.706Z,21.80
2022-09-03T14:59:09.969Z,21.90
2022-09-03T15:01:39.227Z,21.80
2022-09-03T15:04:41.681Z,21.80
2022-09-03T15:07:30.968Z,21.80
2022-09-03T15:10:28.973Z,21.90
2022-09-03T15:13:00.885Z,21.80
2022-09-03T15:15:37.299Z,21.80
2022-09-03T15:18:19.446Z,21.70
2022-09-03T15:20:53.187Z,21.70
2022-09-03T15:23:29.231Z,21.70
2022-09-03T15:26:16.553Z,21.80
2022-09-03T15:28:57.281Z,21.70
2022-09-03T15:31:36.581Z,21.80
2022-09-03T15:34:19.959Z,21.60
2022-09-03T15:36:53.694Z,21.50
2022-09-03T15:39:25.944Z,21.50
2022-09-03T15:42:00.115Z,21.40
2022-09-03T15:44:37.456Z,21.50
2022-09-03T15:47:14.256Z,21.40
2022-09-03T15:50:02.175Z,21.30
2022-09-03T15:52:38.820Z,21.30
2022-09-03T15:55:16.647Z,21.30
2022-09-03T15:57:54.808Z,21.30
2022-09-03T16:00:23.957Z,21.30
2022-09-03T16:03:07.743Z,21.30
2022-09-03T16:05:41.275Z,21.40
2022-09-03T16:08:19.673Z,21.40
2022-09-03T16:10:59.014Z,21.40
2022-09-03T16:13:41.900Z,21.30
2022-09-03T16:16:12.301Z,21.20
2022-09-03T16:18:47.973Z,21.10
2022-09-03T16:21:32.376Z,21.00
2022-09-03T16:24:06.162Z,20.80
2022-09-03T16:26:38.751Z,20.80
2022-09-03T16:29:13.209Z,20.80
2022-09-03T16:32:04.175Z,20.70
2022-09-03T16:34:42.146Z,20.60
2022-09-03T16:37:37.446Z,20.50
2022-09-03T16:40:24.472Z,20.50
2022-09-03T16:43:29.875Z,20.50
2022-09-03T16:46:19.077Z,20.40
2022-09-03T16:49:03.787Z,20.30
2022-09-03T16:51:42.781Z,20.30
2022-09-03T16:54:27.941Z,20.30
2022-09-03T16:57:03.938Z,20.20
2022-09-03T16:59:51.249Z,20.10
2022-09-03T17:02:42.972Z,20.20
2022-09-03T17:05:26.559Z,20.10
2022-09-03T17:08:15.090Z,20.10
2022-09-03T17:10:50.031Z,20.20
2022-09-03T17:13:46.068Z,20.20
2022-09-03T17:16:27.937Z,20.10
2022-09-03T17:19:10.691Z,20.10
2022-09-03T17:21:49.185Z,20.00
2022-09-03T17:24:45.077Z,19.90
2022-09-03T17:27:50.676Z,19.80
2022-09-03T17:30:23.337Z,19.70
2022-09-03T17:33:24.424Z,19.60
2022-09-03T17:36:02.696Z,19.50
2022-09-03T17:38:48.258Z,19.40
2022-09-03T17:41:31.057Z,19.40
2022-09-03T17:44:07.558Z,19.30
2022-09-03T17:46:48.722Z,19.20
2022-09-03T17:49:28.149Z,19.10
2022-09-03T17:52:06.404Z,19.10
2022-09-03T17:54:44.194Z,19.10
2022-09-03T17:57:21.712Z,19.10
2022-09-03T17:59:57.384Z,19.10
2022-09-03T18:02:38.923Z,19.00
2022-09-03T18:05:19.422Z,18.90
2022-09-03T18:07:58.159Z,18.90
2022-09-03T18:10:43.322Z,18.90
2022-09-03T18:13:23.824Z,18.90
2022-09-03T18:16:08.051Z,18.80
2022-09-03T18:18:43.973Z,18.70
2022-09-03T18:21:33.034Z,18.60
2022-09-03T18:24:29.638Z,18.60
2022-09-03T18:27:20.013Z,18.60
2022-09-03T18:30:09.627Z,18.50
2022-09-03T18:32:55.113Z,18.40
2022-09-03T18:35:41.680Z,18.30
2022-09-03T18:38:27.471Z,18.20
2022-09-03T18:41:24.659Z,18.20
2022-09-03T18:44:17.501Z,18.10
2022-09-03T18:50:27.634Z,18.00
2022-09-03T18:53:17.483Z,18.00
2022-09-03T18:56:16.108Z,17.90
2022-09-03T18:59:16.564Z,17.90
2022-09-03T19:02:02.274Z,17.90
2022-09-03T19:05:00.865Z,17.80
2022-09-03T19:07:59.999Z,17.70
2022-09-03T19:10:52.420Z,17.70
2022-09-03T19:13:50.074Z,17.60
2022-09-03T19:16:45.225Z,17.50
2022-09-03T19:19:54.800Z,17.30
2022-09-03T19:22:50.334Z,17.30
2022-09-03T19:25:36.870Z,17.20
2022-09-03T19:28:32.915Z,17.10
2022-09-03T19:31:41.193Z,17.00
2022-09-03T19:34:40.404Z,16.90
2022-09-03T19:37:34.761Z,16.80
2022-09-03T19:40:33.446Z,16.60
2022-09-03T19:43:27.775Z,16.60
2022-09-03T19:46:21.001Z,16.50
2022-09-03T19:49:18.678Z,16.40
2022-09-03T19:52:17.047Z,16.30
2022-09-03T19:55:03.866Z,16.40
2022-09-03T19:57:50.397Z,16.40
2022-09-03T20:00:37.837Z,16.40
2022-09-03T20:03:24.929Z,16.40
2022-09-03T20:06:12.079Z,16.30
2022-09-03T20:08:57.940Z,16.20
2022-09-03T20:11:29.576Z,16.20
2022-09-03T20:14:16.393Z,16.00
2022-09-03T20:17:04.871Z,15.90
2022-09-03T20:19:40.862Z,15.80
2022-09-03T20:22:19.689Z,15.80
2022-09-03T20:25:05.190Z,15.70
2022-09-03T20:27:46.607Z,15.70
2022-09-03T20:30:19.498Z,15.70
2022-09-03T20:33:22.653Z,15.60
2022-09-03T20:36:02.032Z,15.60
2022-09-03T20:38:57.467Z,15.50
2022-09-03T20:41:33.444Z,15.50
2022-09-03T20:44:22.010Z,15.50
2022-09-03T20:47:00.593Z,15.50
2022-09-03T20:49:38.654Z,15.40
2022-09-03T20:52:13.568Z,15.50
2022-09-03T20:54:50.506Z,15.50
2022-09-03T20:57:41.631Z,15.40
2022-09-03T21:00:12.731Z,15.40
2022-09-03T21:03:01.511Z,15.50
2022-09-03T21:05:33.735Z,15.50
2022-09-03T21:08:15.406Z,15.60
2022-09-03T21:10:52.116Z,15.60
2022-09-03T21:13:32.765Z,15.60
2022-09-03T21:16:20.245Z,15.60
2022-09-03T21:18:58.261Z,15.60
2022-09-03T21:21:36.598Z,15.50
2022-09-03T21:24:09.678Z,15.40
2022-09-03T21:26:46.229Z,15.40
2022-09-03T21:29:22.746Z,15.30
2022-09-03T21:31:56.000Z,15.20
2022-09-03T21:34:31.587Z,15.20
2022-09-03T21:37:04.615Z,15.20
2022-09-03T21:39:36.030Z,15.10
2022-09-03T21:42:10.961Z,15.20
2022-09-03T21:44:48.012Z,15.10
2022-09-03T21:47:18.710Z,15.10
2022-09-03T21:49:59.591Z,15.10
2022-09-03T21:52:35.614Z,15.10
2022-09-03T21:55:20.185Z,15.20
2022-09-03T21:58:03.849Z,15.10
2022-09-03T22:00:32.770Z,15.10
2022-09-03T22:03:01.512Z,15.10
2022-09-03T22:05:39.296Z,15.10
2022-09-03T22:08:18.220Z,15.00
2022-09-03T22:10:54.998Z,14.90
2022-09-03T22:13:30.279Z,14.80
2022-09-03T22:16:03.341Z,14.80
2022-09-03T22:18:35.913Z,14.70
2022-09-03T22:21:13.338Z,14.70
2022-09-03T22:23:57.466Z,14.70
2022-09-03T22:26:39.151Z,14.60
2022-09-03T22:29:15.524Z,14.70
2022-09-03T22:31:53.812Z,14.60
2022-09-03T22:34:37.230Z,14.70
2022-09-03T22:37:07.021Z,14.60
2022-09-03T22:39:38.118Z,14.60
2022-09-03T22:42:27.641Z,14.50
2022-09-03T22:45:12.740Z,14.40
2022-09-03T22:47:49.559Z,14.30
2022-09-03T22:50:21.755Z,14.30
2022-09-03T22:52:59.326Z,14.10
2022-09-03T22:55:28.339Z,14.10
2022-09-03T22:58:01.398Z,14.00
2022-09-03T23:00:35.363Z,14.00
2022-09-03T23:03:08.527Z,14.00
2022-09-03T23:05:45.031Z,13.90
2022-09-03T23:08:16.133Z,13.80
2022-09-03T23:10:59.613Z,13.80
2022-09-03T23:13:34.230Z,13.70
2022-09-03T23:16:10.640Z,13.60
2022-09-03T23:18:44.159Z,13.50
2022-09-03T23:21:23.747Z,13.40
2022-09-03T23:23:56.922Z,13.40
2022-09-03T23:26:33.631Z,13.30
2022-09-03T23:29:12.178Z,13.20
2022-09-03T23:31:41.647Z,13.20
2022-09-03T23:34:11.340Z,13.10
2022-09-03T23:37:29.749Z,13.10
2022-09-03T23:40:04.314Z,13.10
2022-09-03T23:42:47.762Z,13.10
2022-09-03T23:45:25.747Z,13.00
2022-09-03T23:48:07.863Z,13.00
2022-09-03T23:50:40.837Z,12.90
2022-09-03T23:53:25.855Z,12.90
2022-09-03T23:56:07.195Z,12.90
2022-09-03T23:58:47.333Z,12.90
